Latest Weather Forecast - Saturday 1st December 2018 (6am)

Forecast Period: 6 am -1st December 2018 to 6pm - 1st December 2018
Synopsis: Eastern Atlantic High Pressure system is the dominant feature
Forecast: Fair to occasionally cloudy and breezy with a few brief scattered showers
Weather Advisory/Warning: None
Winds:

NNE to E at 30 to 45 km/h (19 to 28 mph)

Sea Conditions: Moderate in open water; swells 1.5m to 2.5m
Marine 
Advisory/Warning:
A small craft advisory is in effect for above normal sea swells and brisk winds
Upcoming Tides:
High: 12:08 pm    
Low: 07:21 am 07:11 pm

Aviation WX

[Source: ADDS]
METAR
TVSA 141500Z 09005KT 030V130 9999 BKN019 29/24 Q1014 NOSIG =
TVSA 141100Z 1412/1512 10008KT 9999 SCT018
TAF
TVSA 141100Z 1412/1512 10008KT 9999 SCT018 =
SR / SS: 10:18 / 21:40 UTC (Sunrise Sunset 2019-12-14)